createdAt,value
2016-08-06T00:00:42.697Z,962.07
2016-08-06T00:01:11.713Z,962.06
2016-08-06T00:02:37.390Z,962.06
2016-08-06T00:03:38.513Z,962.06
2016-08-06T00:04:15.326Z,962.10
2016-08-06T00:05:27.014Z,962.11
2016-08-06T00:06:26.482Z,962.12
2016-08-06T00:07:40.841Z,962.11
2016-08-06T00:08:27.468Z,962.16
2016-08-06T00:09:27.093Z,962.14
2016-08-06T00:10:31.063Z,962.18
2016-08-06T00:11:21.365Z,962.17
2016-08-06T00:12:27.375Z,962.16
2016-08-06T00:13:38.500Z,962.21
2016-08-06T00:14:33.017Z,962.22
2016-08-06T00:15:36.422Z,962.20
2016-08-06T00:16:43.756Z,962.26
2016-08-06T00:17:21.658Z,962.23
2016-08-06T00:18:40.781Z,962.27
2016-08-06T00:19:24.404Z,962.27
2016-08-06T00:20:42.741Z,962.25
2016-08-06T00:21:26.137Z,962.25
2016-08-06T00:22:33.994Z,962.26
2016-08-06T00:23:34.517Z,962.20
2016-08-06T00:24:34.366Z,962.26
2016-08-06T00:25:18.123Z,962.21
2016-08-06T00:26:40.262Z,962.20
2016-08-06T00:27:30.657Z,962.20
2016-08-06T00:28:32.947Z,962.20
2016-08-06T00:29:35.868Z,962.16
2016-08-06T00:30:43.047Z,962.16
2016-08-06T00:31:36.273Z,962.18
2016-08-06T00:32:37.679Z,962.16
2016-08-06T00:33:15.119Z,962.17
2016-08-06T00:34:42.398Z,962.19
2016-08-06T00:35:24.938Z,962.18
2016-08-06T00:36:34.026Z,962.17
2016-08-06T00:37:23.367Z,962.17
2016-08-06T00:38:44.903Z,962.17
2016-08-06T00:39:35.978Z,962.14
2016-08-06T00:40:39.772Z,962.16
2016-08-06T00:41:39.355Z,962.15
2016-08-06T00:42:21.169Z,962.14
2016-08-06T00:43:20.154Z,962.14
2016-08-06T00:44:13.555Z,962.11
2016-08-06T00:45:12.001Z,962.13
2016-08-06T00:46:12.904Z,962.15
2016-08-06T00:47:28.564Z,962.16
2016-08-06T00:48:34.361Z,962.19
2016-08-06T00:49:22.795Z,962.17
2016-08-06T00:50:30.448Z,962.13
2016-08-06T00:51:30.606Z,962.14
2016-08-06T00:52:33.130Z,962.19
2016-08-06T00:53:26.275Z,962.16
2016-08-06T00:54:26.343Z,962.17
2016-08-06T00:55:32.158Z,962.18
2016-08-06T00:56:34.364Z,962.22
2016-08-06T00:57:28.874Z,962.20
2016-08-06T00:58:20.237Z,962.19
2016-08-06T00:59:32.975Z,962.22
2016-08-06T01:00:32.100Z,962.17
2016-08-06T01:01:15.302Z,962.14
2016-08-06T01:02:42.837Z,962.16
2016-08-06T01:03:28.445Z,962.14
2016-08-06T01:04:34.081Z,962.20
2016-08-06T01:05:29.295Z,962.21
2016-08-06T01:06:40.212Z,962.21
2016-08-06T01:07:13.819Z,962.23
2016-08-06T01:08:36.042Z,962.24
2016-08-06T01:09:16.967Z,962.27
2016-08-06T01:10:31.779Z,962.26
2016-08-06T01:11:41.781Z,962.29
2016-08-06T01:12:28.681Z,962.28
2016-08-06T01:13:39.353Z,962.29
2016-08-06T01:14:19.059Z,962.31
2016-08-06T01:16:19.329Z,962.38
2016-08-06T01:17:14.340Z,962.35
2016-08-06T01:18:27.062Z,962.33
2016-08-06T01:19:19.811Z,962.32
2016-08-06T01:20:33.474Z,962.27
2016-08-06T01:21:31.713Z,962.30
2016-08-06T01:22:20.156Z,962.34
2016-08-06T01:23:13.847Z,962.30
2016-08-06T01:24:15.540Z,962.32
2016-08-06T01:25:36.819Z,962.34
2016-08-06T01:26:26.641Z,962.30
2016-08-06T01:27:29.670Z,962.27
2016-08-06T01:28:30.128Z,962.28
2016-08-06T01:29:38.028Z,962.31
2016-08-06T01:30:43.099Z,962.30
2016-08-06T01:31:24.567Z,962.29
2016-08-06T01:32:38.925Z,962.27
2016-08-06T01:33:13.339Z,962.27
2016-08-06T01:34:13.817Z,962.32
2016-08-06T01:35:34.575Z,962.28
2016-08-06T01:36:41.414Z,962.30
2016-08-06T01:37:13.921Z,962.30
2016-08-06T01:38:37.554Z,962.35
2016-08-06T01:39:38.799Z,962.37
2016-08-06T01:40:42.129Z,962.36
2016-08-06T01:41:40.267Z,962.41
2016-08-06T01:42:36.109Z,962.39
2016-08-06T01:43:31.673Z,962.38
2016-08-06T01:44:13.448Z,962.37
2016-08-06T01:45:36.216Z,962.34
2016-08-06T01:46:20.087Z,962.36
2016-08-06T01:47:36.858Z,962.36
2016-08-06T01:48:20.039Z,962.35
2016-08-06T01:49:17.113Z,962.35
2016-08-06T01:50:32.929Z,962.35
2016-08-06T01:51:33.007Z,962.34
2016-08-06T01:52:26.379Z,962.36
2016-08-06T01:53:38.382Z,962.34
2016-08-06T01:54:37.278Z,962.33
2016-08-06T01:55:37.251Z,962.30
2016-08-06T01:56:28.087Z,962.33
2016-08-06T01:57:42.204Z,962.33
2016-08-06T01:58:36.545Z,962.30
2016-08-06T01:59:35.996Z,962.36
2016-08-06T02:00:32.564Z,962.36
2016-08-06T02:01:37.895Z,962.38
2016-08-06T02:02:38.070Z,962.39
2016-08-06T02:03:36.243Z,962.41
2016-08-06T02:04:17.086Z,962.35
2016-08-06T02:05:33.630Z,962.36
2016-08-06T02:06:28.784Z,962.37
2016-08-06T02:07:40.799Z,962.37
2016-08-06T02:08:37.019Z,962.34
2016-08-06T02:09:35.769Z,962.34
2016-08-06T02:10:31.257Z,962.37
2016-08-06T02:11:32.888Z,962.42
2016-08-06T02:12:34.635Z,962.39
2016-08-06T02:13:28.073Z,962.44
2016-08-06T02:14:34.870Z,962.32
2016-08-06T02:16:28.696Z,962.38
2016-08-06T02:17:34.661Z,962.36
2016-08-06T02:18:32.682Z,962.36
2016-08-06T02:19:42.953Z,962.40
2016-08-06T02:20:33.583Z,962.40
2016-08-06T02:21:39.260Z,962.38
2016-08-06T02:22:44.877Z,962.39
2016-08-06T02:23:38.193Z,962.34
2016-08-06T02:24:44.235Z,962.33
2016-08-06T02:25:33.845Z,962.34
2016-08-06T02:26:30.485Z,962.33
2016-08-06T02:27:25.453Z,962.31
2016-08-06T02:28:39.568Z,962.29
2016-08-06T02:29:21.536Z,962.26
2016-08-06T02:30:16.491Z,962.28
2016-08-06T02:31:27.153Z,962.23
2016-08-06T02:32:37.483Z,962.27
2016-08-06T02:33:33.294Z,962.28
2016-08-06T02:34:33.609Z,962.26
2016-08-06T02:35:32.929Z,962.29
2016-08-06T02:36:30.267Z,962.30
2016-08-06T02:37:20.355Z,962.36
2016-08-06T02:38:36.338Z,962.36
2016-08-06T02:39:41.607Z,962.38
2016-08-06T02:40:32.900Z,962.38
2016-08-06T02:41:27.814Z,962.39
2016-08-06T02:42:35.354Z,962.36
2016-08-06T02:43:43.641Z,962.36
2016-08-06T02:44:31.363Z,962.41
2016-08-06T02:46:14.009Z,962.36
2016-08-06T02:47:31.759Z,962.32
2016-08-06T02:48:42.918Z,962.31
2016-08-06T02:49:21.098Z,962.29
2016-08-06T02:50:27.808Z,962.26
2016-08-06T02:51:34.063Z,962.22
2016-08-06T02:52:36.513Z,962.20
2016-08-06T02:53:38.093Z,962.21
2016-08-06T02:54:43.993Z,962.22
2016-08-06T02:55:38.315Z,962.21
2016-08-06T02:56:39.137Z,962.17
2016-08-06T02:57:14.619Z,962.16
2016-08-06T02:58:33.787Z,962.22
2016-08-06T02:59:20.768Z,962.21
2016-08-06T03:00:24.273Z,962.23
2016-08-06T03:01:26.676Z,962.28
2016-08-06T03:02:35.184Z,962.25
2016-08-06T03:03:21.368Z,962.29
2016-08-06T03:04:28.141Z,962.31
2016-08-06T03:05:41.090Z,962.31
2016-08-06T03:06:22.985Z,962.34
2016-08-06T03:07:14.819Z,962.34
2016-08-06T03:08:32.142Z,962.33
2016-08-06T03:09:42.225Z,962.29
2016-08-06T03:10:37.749Z,962.34
2016-08-06T03:11:32.040Z,962.36
2016-08-06T03:12:24.899Z,962.31
2016-08-06T03:13:37.971Z,962.35
2016-08-06T03:14:26.836Z,962.36
2016-08-06T03:15:17.409Z,962.38
2016-08-06T03:16:15.714Z,962.40
2016-08-06T03:17:30.970Z,962.39
2016-08-06T03:18:34.059Z,962.41
2016-08-06T03:19:31.008Z,962.43
2016-08-06T03:20:32.739Z,962.45
2016-08-06T03:21:19.414Z,962.44
2016-08-06T03:22:17.269Z,962.47
2016-08-06T03:23:35.105Z,962.48
2016-08-06T03:24:25.102Z,962.44
2016-08-06T03:25:34.365Z,962.42
2016-08-06T03:26:29.874Z,962.46
2016-08-06T03:27:38.855Z,962.43
2016-08-06T03:28:30.240Z,962.45
2016-08-06T03:29:32.716Z,962.44
2016-08-06T03:31:33.848Z,962.48
2016-08-06T03:32:35.070Z,962.45
2016-08-06T03:33:21.082Z,962.46
2016-08-06T03:34:33.824Z,962.47
2016-08-06T03:35:28.447Z,962.49
2016-08-06T03:36:32.393Z,962.46
2016-08-06T03:37:38.777Z,962.47
2016-08-06T03:38:38.907Z,962.47
2016-08-06T03:39:36.861Z,962.48
2016-08-06T03:40:33.268Z,962.45
2016-08-06T03:41:26.548Z,962.45
2016-08-06T03:42:28.488Z,962.47
2016-08-06T03:43:39.414Z,962.42
2016-08-06T03:44:45.374Z,962.41
2016-08-06T03:45:14.970Z,962.43
2016-08-06T03:46:37.860Z,962.42
2016-08-06T03:47:26.390Z,962.44
2016-08-06T03:48:40.701Z,962.42
2016-08-06T03:49:21.949Z,962.40
2016-08-06T03:50:21.043Z,962.44
2016-08-06T03:51:24.085Z,962.44
2016-08-06T03:52:31.928Z,962.48
2016-08-06T03:53:26.081Z,962.50
2016-08-06T03:54:21.119Z,962.54
2016-08-06T03:55:35.980Z,962.54
2016-08-06T03:56:33.744Z,962.57
2016-08-06T03:57:35.382Z,962.57
2016-08-06T03:58:21.577Z,962.58
2016-08-06T03:59:32.229Z,962.60
2016-08-06T04:00:45.827Z,962.58
2016-08-06T04:01:37.816Z,962.59
2016-08-06T04:02:26.253Z,962.62
2016-08-06T04:03:39.402Z,962.63
2016-08-06T04:04:32.943Z,962.62
2016-08-06T04:05:20.046Z,962.64
2016-08-06T04:06:39.718Z,962.69
2016-08-06T04:07:34.503Z,962.63
2016-08-06T04:08:25.943Z,962.66
2016-08-06T04:09:26.187Z,962.72
2016-08-06T04:10:32.981Z,962.66
2016-08-06T04:11:32.874Z,962.70
2016-08-06T04:12:27.064Z,962.71
2016-08-06T04:13:27.809Z,962.71
2016-08-06T04:14:31.280Z,962.70
2016-08-06T04:15:32.576Z,962.72
2016-08-06T04:16:21.470Z,962.74
2016-08-06T04:17:14.718Z,962.73
2016-08-06T04:18:40.473Z,962.75
2016-08-06T04:19:32.021Z,962.73
2016-08-06T04:20:24.305Z,962.77
2016-08-06T04:21:26.721Z,962.75
2016-08-06T04:22:19.851Z,962.83
2016-08-06T04:23:21.752Z,962.84
2016-08-06T04:24:33.139Z,962.84
2016-08-06T04:25:32.187Z,962.85
2016-08-06T04:26:12.421Z,962.83
2016-08-06T04:27:37.032Z,962.81
2016-08-06T04:28:38.758Z,962.77
2016-08-06T04:29:34.274Z,962.79
2016-08-06T04:30:18.265Z,962.83
2016-08-06T04:31:26.787Z,962.80
2016-08-06T04:32:27.485Z,962.85
2016-08-06T04:33:43.030Z,962.88
2016-08-06T04:34:32.686Z,962.87
2016-08-06T04:35:38.214Z,962.89
2016-08-06T04:36:33.132Z,962.93
2016-08-06T04:37:49.709Z,962.97
2016-08-06T04:38:32.211Z,962.93
2016-08-06T04:39:36.627Z,962.95
2016-08-06T04:40:22.685Z,962.95
2016-08-06T04:41:14.806Z,962.92
2016-08-06T04:42:16.307Z,962.93
2016-08-06T04:43:46.051Z,962.91
2016-08-06T04:44:27.344Z,962.89
2016-08-06T04:45:37.341Z,962.91
2016-08-06T04:46:28.366Z,962.91
2016-08-06T04:47:32.789Z,962.95
2016-08-06T04:48:38.271Z,962.91
2016-08-06T04:49:16.570Z,962.92
2016-08-06T04:50:33.290Z,962.88
2016-08-06T04:51:34.145Z,962.85
2016-08-06T04:52:44.080Z,962.86
2016-08-06T04:53:50.151Z,962.85
2016-08-06T04:54:31.540Z,962.78
2016-08-06T04:55:38.047Z,962.79
2016-08-06T04:56:32.252Z,962.79
2016-08-06T04:57:13.395Z,962.77
2016-08-06T04:58:25.948Z,962.79
2016-08-06T04:59:27.376Z,962.80
2016-08-06T05:00:34.824Z,962.81
2016-08-06T05:01:35.137Z,962.82
2016-08-06T05:02:33.432Z,962.89
2016-08-06T05:03:44.080Z,962.90
2016-08-06T05:04:33.172Z,962.93
2016-08-06T05:05:38.973Z,962.97
2016-08-06T05:06:35.842Z,963.01
2016-08-06T05:07:36.464Z,963.02
2016-08-06T05:08:33.497Z,963.02
2016-08-06T05:09:38.512Z,963.01
2016-08-06T05:10:38.002Z,963.01
2016-08-06T05:11:34.090Z,963.02
2016-08-06T05:12:24.291Z,962.99
2016-08-06T05:13:31.831Z,962.97
2016-08-06T05:14:23.660Z,963.00
2016-08-06T05:15:13.220Z,962.99
2016-08-06T05:16:27.292Z,963.02
2016-08-06T05:17:23.964Z,963.01
2016-08-06T05:18:13.588Z,963.02
2016-08-06T05:19:36.577Z,962.97
2016-08-06T05:20:27.245Z,962.92
2016-08-06T05:21:32.292Z,962.93
2016-08-06T05:22:30.315Z,962.97
2016-08-06T05:23:24.098Z,962.92
2016-08-06T05:24:43.241Z,962.95
2016-08-06T05:25:20.281Z,962.94
2016-08-06T05:26:39.417Z,962.93
2016-08-06T05:27:19.013Z,962.99
2016-08-06T05:28:26.935Z,962.97
2016-08-06T05:29:37.901Z,963.00
2016-08-06T05:30:28.788Z,963.02
2016-08-06T05:31:34.656Z,962.98
2016-08-06T05:32:43.447Z,962.98
2016-08-06T05:33:19.866Z,962.97
2016-08-06T05:34:20.746Z,963.00
2016-08-06T05:35:20.432Z,963.05
2016-08-06T05:36:34.802Z,963.03
2016-08-06T05:37:43.149Z,963.03
2016-08-06T05:38:26.296Z,963.04
2016-08-06T05:39:27.515Z,963.05
2016-08-06T05:40:27.669Z,963.05
2016-08-06T05:41:42.932Z,963.09
2016-08-06T05:42:44.540Z,963.08
2016-08-06T05:43:24.942Z,963.11
2016-08-06T05:44:17.133Z,963.13
2016-08-06T05:45:44.549Z,963.10
2016-08-06T05:46:15.578Z,963.11
2016-08-06T05:47:34.165Z,963.13
2016-08-06T05:48:36.006Z,963.16
2016-08-06T05:49:14.783Z,963.15
2016-08-06T05:50:28.382Z,963.19
2016-08-06T05:51:41.175Z,963.16
2016-08-06T05:52:40.808Z,963.15
2016-08-06T05:53:31.625Z,963.17
2016-08-06T05:54:25.270Z,963.18
2016-08-06T05:55:34.556Z,963.15
2016-08-06T05:56:28.473Z,963.16
2016-08-06T05:57:37.737Z,963.13
2016-08-06T05:58:38.416Z,963.14
2016-08-06T05:59:39.391Z,963.14
2016-08-06T06:00:36.996Z,963.10
2016-08-06T06:02:39.126Z,963.11
2016-08-06T06:03:13.153Z,963.09
2016-08-06T06:04:14.591Z,963.12
2016-08-06T06:05:20.678Z,963.12
2016-08-06T06:06:28.290Z,963.14
2016-08-06T06:07:16.259Z,963.11
2016-08-06T06:08:16.961Z,963.14
2016-08-06T06:09:26.781Z,963.16
2016-08-06T06:10:32.939Z,963.20
2016-08-06T06:11:12.850Z,963.23
2016-08-06T06:12:33.361Z,963.22
2016-08-06T06:13:43.692Z,963.25
2016-08-06T06:14:26.833Z,963.21
2016-08-06T06:15:22.288Z,963.27
2016-08-06T06:16:33.050Z,963.27
2016-08-06T06:17:39.166Z,963.29
2016-08-06T06:18:30.601Z,963.27
2016-08-06T06:19:36.488Z,963.27
2016-08-06T06:20:31.752Z,963.28
2016-08-06T06:21:31.556Z,963.30
2016-08-06T06:22:13.969Z,963.29
2016-08-06T06:23:26.219Z,963.29
2016-08-06T06:24:32.301Z,963.33
2016-08-06T06:25:32.061Z,963.31
2016-08-06T06:26:39.532Z,963.33
2016-08-06T06:27:27.491Z,963.32
2016-08-06T06:28:39.735Z,963.33
2016-08-06T06:29:14.621Z,963.36
2016-08-06T06:30:43.333Z,963.34
2016-08-06T06:32:29.252Z,963.41
2016-08-06T06:33:31.397Z,963.43
2016-08-06T06:34:30.266Z,963.39
2016-08-06T06:35:44.051Z,963.42
2016-08-06T06:36:12.455Z,963.44
2016-08-06T06:37:38.593Z,963.42
2016-08-06T06:38:14.256Z,963.39
2016-08-06T06:39:38.401Z,963.41
2016-08-06T06:40:37.923Z,963.42
2016-08-06T06:41:26.161Z,963.43
2016-08-06T06:42:32.763Z,963.42
2016-08-06T06:43:33.472Z,963.47
2016-08-06T06:44:33.829Z,963.44
2016-08-06T06:45:32.777Z,963.49
2016-08-06T06:46:30.798Z,963.46
2016-08-06T06:47:19.301Z,963.47
2016-08-06T06:48:15.786Z,963.46
2016-08-06T06:49:29.857Z,963.48
2016-08-06T06:50:32.538Z,963.48
2016-08-06T06:51:33.922Z,963.49
2016-08-06T06:52:41.223Z,963.50
2016-08-06T06:53:25.382Z,963.53
2016-08-06T06:54:13.357Z,963.52
2016-08-06T06:55:14.282Z,963.51
2016-08-06T06:56:32.192Z,963.51
2016-08-06T06:57:25.204Z,963.56
2016-08-06T06:58:15.517Z,963.54
2016-08-06T06:59:32.250Z,963.55
2016-08-06T07:00:24.565Z,963.59
2016-08-06T07:01:25.277Z,963.63
2016-08-06T07:02:25.197Z,963.61
2016-08-06T07:03:28.206Z,963.62
2016-08-06T07:04:29.367Z,963.62
2016-08-06T07:05:32.298Z,963.63
2016-08-06T07:06:26.808Z,963.65
2016-08-06T07:07:28.286Z,963.60
2016-08-06T07:08:31.718Z,963.62
2016-08-06T07:09:33.191Z,963.67
2016-08-06T07:10:31.677Z,963.69
2016-08-06T07:11:30.333Z,963.71
2016-08-06T07:12:20.151Z,963.74
2016-08-06T07:13:25.548Z,963.69
2016-08-06T07:14:12.525Z,963.73
2016-08-06T07:15:34.653Z,963.74
2016-08-06T07:16:27.221Z,963.75
2016-08-06T07:17:14.205Z,963.79
2016-08-06T07:18:10.808Z,963.78
2016-08-06T07:19:25.969Z,963.82
2016-08-06T07:20:27.670Z,963.82
2016-08-06T07:21:30.069Z,963.80
2016-08-06T07:22:16.297Z,963.83
2016-08-06T07:23:26.706Z,963.87
2016-08-06T07:24:25.585Z,963.88
2016-08-06T07:25:33.747Z,963.82
2016-08-06T07:26:26.118Z,963.86
2016-08-06T07:27:32.005Z,963.86
2016-08-06T07:28:26.665Z,963.93
2016-08-06T07:29:32.747Z,963.94
2016-08-06T07:30:31.729Z,963.91
2016-08-06T07:31:28.019Z,963.96
2016-08-06T07:32:24.590Z,963.92
2016-08-06T07:33:27.470Z,963.88
2016-08-06T07:34:33.419Z,963.87
2016-08-06T07:35:26.753Z,963.88
2016-08-06T07:36:24.827Z,963.87
2016-08-06T07:37:19.837Z,963.84
2016-08-06T07:38:27.199Z,963.86
2016-08-06T07:39:23.911Z,963.92
2016-08-06T07:40:22.184Z,963.87
2016-08-06T07:41:26.556Z,963.95
2016-08-06T07:42:37.114Z,963.94
2016-08-06T07:43:44.644Z,963.94
2016-08-06T07:44:41.275Z,963.97
2016-08-06T07:45:13.328Z,963.96
2016-08-06T07:46:34.245Z,963.98
2016-08-06T07:47:15.287Z,963.97
2016-08-06T07:48:14.104Z,964.01
2016-08-06T07:49:33.770Z,963.99
2016-08-06T07:50:22.012Z,964.00
2016-08-06T07:51:31.759Z,964.01
2016-08-06T07:52:26.514Z,964.02
2016-08-06T07:53:32.842Z,964.06
2016-08-06T07:54:13.960Z,964.01
2016-08-06T07:55:12.864Z,964.02
2016-08-06T07:56:37.543Z,964.03
2016-08-06T07:57:28.717Z,964.06
2016-08-06T07:58:36.523Z,964.10
2016-08-06T07:59:37.041Z,964.03
2016-08-06T08:00:31.013Z,964.04
2016-08-06T08:01:32.022Z,963.99
2016-08-06T08:02:23.073Z,963.95
2016-08-06T08:03:12.867Z,963.97
2016-08-06T08:04:32.053Z,963.98
2016-08-06T08:05:32.389Z,963.99
2016-08-06T08:06:38.913Z,963.96
2016-08-06T08:07:13.207Z,963.99
2016-08-06T08:08:46.467Z,963.98
2016-08-06T08:09:24.490Z,963.96
2016-08-06T08:10:21.418Z,963.99
2016-08-06T08:11:34.767Z,964.03
2016-08-06T08:12:29.410Z,964.03
2016-08-06T08:13:32.571Z,963.98
2016-08-06T08:14:29.033Z,963.95
2016-08-06T08:15:28.782Z,963.90
2016-08-06T08:16:33.000Z,963.90
2016-08-06T08:17:40.311Z,963.89
2016-08-06T08:18:27.031Z,963.90
2016-08-06T08:19:33.316Z,963.94
2016-08-06T08:20:40.028Z,963.93
2016-08-06T08:21:26.959Z,963.93
2016-08-06T08:22:28.075Z,963.94
2016-08-06T08:23:32.495Z,963.90
2016-08-06T08:24:20.684Z,963.88
2016-08-06T08:25:21.957Z,963.90
2016-08-06T08:26:21.038Z,963.92
2016-08-06T08:27:32.198Z,963.95
2016-08-06T08:28:19.282Z,963.97
2016-08-06T08:29:38.800Z,963.98
2016-08-06T08:30:39.919Z,964.02
2016-08-06T08:31:35.418Z,964.01
2016-08-06T08:32:32.897Z,964.00
2016-08-06T08:33:38.220Z,963.98
2016-08-06T08:34:44.128Z,964.02
2016-08-06T08:35:32.477Z,963.99
2016-08-06T08:36:40.156Z,963.99
2016-08-06T08:37:39.404Z,964.01
2016-08-06T08:38:37.672Z,963.96
2016-08-06T08:39:40.211Z,964.01
2016-08-06T08:40:39.009Z,963.98
2016-08-06T08:41:33.796Z,963.97
2016-08-06T08:42:42.153Z,964.01
2016-08-06T08:43:16.376Z,963.99
2016-08-06T08:44:33.047Z,963.99
2016-08-06T08:45:34.834Z,963.92
2016-08-06T08:46:39.075Z,963.96
2016-08-06T08:47:37.296Z,963.95
2016-08-06T08:48:43.117Z,963.98
2016-08-06T08:49:32.550Z,964.00
2016-08-06T08:50:36.312Z,964.00
2016-08-06T08:51:40.628Z,964.00
2016-08-06T08:52:34.345Z,963.97
2016-08-06T08:53:23.089Z,963.96
2016-08-06T08:54:27.826Z,963.99
2016-08-06T08:55:45.064Z,964.00
2016-08-06T08:56:33.734Z,963.99
2016-08-06T08:57:41.970Z,964.01
2016-08-06T08:58:38.598Z,963.99
2016-08-06T08:59:38.413Z,963.95
2016-08-06T09:00:20.637Z,963.99
2016-08-06T09:01:34.628Z,963.99
2016-08-06T09:02:42.980Z,964.00
2016-08-06T09:03:25.418Z,964.01
2016-08-06T09:04:33.100Z,964.06
2016-08-06T09:05:38.811Z,964.07
2016-08-06T09:06:24.121Z,964.09
2016-08-06T09:07:39.219Z,964.11
2016-08-06T09:08:32.087Z,964.09
2016-08-06T09:09:40.716Z,964.12
2016-08-06T09:10:18.371Z,964.11
2016-08-06T09:11:32.516Z,964.08
2016-08-06T09:12:25.085Z,964.06
2016-08-06T09:13:30.151Z,964.17
2016-08-06T09:14:34.850Z,964.17
2016-08-06T09:15:36.342Z,964.17
2016-08-06T09:16:27.066Z,964.14
2016-08-06T09:18:33.387Z,964.11
2016-08-06T09:19:32.586Z,964.11
2016-08-06T09:20:32.851Z,964.12
2016-08-06T09:21:27.965Z,964.13
2016-08-06T09:22:32.938Z,964.14
2016-08-06T09:23:32.018Z,964.12
2016-08-06T09:24:23.247Z,964.16
2016-08-06T09:25:22.200Z,964.16
2016-08-06T09:26:27.777Z,964.12
2016-08-06T09:27:29.371Z,964.11
2016-08-06T09:28:31.557Z,964.11
2016-08-06T09:29:44.638Z,964.11
2016-08-06T09:30:28.120Z,964.10
2016-08-06T09:31:37.017Z,964.13
2016-08-06T09:32:21.095Z,964.09
2016-08-06T09:33:22.677Z,964.11
2016-08-06T09:34:21.669Z,964.06
2016-08-06T09:35:32.758Z,964.09
2016-08-06T09:36:26.777Z,964.02
2016-08-06T09:37:38.503Z,964.05
2016-08-06T09:38:32.491Z,964.03
2016-08-06T09:39:33.668Z,964.05
2016-08-06T09:40:22.149Z,964.08
2016-08-06T09:41:20.076Z,964.12
2016-08-06T09:42:24.275Z,964.12
2016-08-06T09:43:28.552Z,964.08
2016-08-06T09:44:36.828Z,964.07
2016-08-06T09:45:30.082Z,964.06
2016-08-06T09:46:32.876Z,964.05
2016-08-06T09:47:39.217Z,964.02
2016-08-06T09:48:31.441Z,964.05
2016-08-06T09:49:33.321Z,964.01
2016-08-06T09:50:26.819Z,964.05
2016-08-06T09:51:27.875Z,964.04
2016-08-06T09:52:32.539Z,964.09
2016-08-06T09:53:33.126Z,964.07
2016-08-06T09:54:30.629Z,964.06
2016-08-06T09:55:21.812Z,964.07
2016-08-06T09:56:32.732Z,964.04
2016-08-06T09:57:31.006Z,964.03
2016-08-06T09:58:17.530Z,964.09
2016-08-06T09:59:15.153Z,964.08
2016-08-06T10:00:37.363Z,964.12
2016-08-06T10:01:28.059Z,964.10
2016-08-06T10:03:33.791Z,964.14
2016-08-06T10:04:33.033Z,964.14
2016-08-06T10:05:15.234Z,964.13
2016-08-06T10:06:26.735Z,964.12
2016-08-06T10:07:22.309Z,964.11
2016-08-06T10:08:24.460Z,964.13
2016-08-06T10:09:28.443Z,964.21
2016-08-06T10:10:29.820Z,964.19
2016-08-06T10:11:32.123Z,964.22
2016-08-06T10:12:28.225Z,964.23
2016-08-06T10:13:28.806Z,964.20
2016-08-06T10:14:12.198Z,964.22
2016-08-06T10:15:38.399Z,964.17
2016-08-06T10:16:40.243Z,964.19
2016-08-06T10:17:22.190Z,964.15
2016-08-06T10:18:21.372Z,964.20
2016-08-06T10:19:27.418Z,964.22
2016-08-06T10:20:21.598Z,964.16
2016-08-06T10:21:19.197Z,964.15
2016-08-06T10:22:24.456Z,964.17
2016-08-06T10:23:23.991Z,964.13
2016-08-06T10:24:22.994Z,964.16
2016-08-06T10:25:34.259Z,964.20
2016-08-06T10:26:21.310Z,964.19
2016-08-06T10:27:24.979Z,964.21
2016-08-06T10:28:33.233Z,964.23
2016-08-06T10:29:31.404Z,964.27
2016-08-06T10:30:25.328Z,964.30
2016-08-06T10:31:33.113Z,964.28
2016-08-06T10:32:22.537Z,964.33
2016-08-06T10:33:13.051Z,964.27
2016-08-06T10:34:14.769Z,964.29
2016-08-06T10:35:17.058Z,964.32
2016-08-06T10:36:14.888Z,964.29
2016-08-06T10:37:33.396Z,964.24
2016-08-06T10:38:33.398Z,964.21
2016-08-06T10:39:13.945Z,964.21
2016-08-06T10:40:15.860Z,964.21
2016-08-06T10:41:30.824Z,964.19
2016-08-06T10:42:27.516Z,964.23
2016-08-06T10:43:21.023Z,964.20
2016-08-06T10:44:20.276Z,964.20
2016-08-06T10:45:31.384Z,964.23
2016-08-06T10:46:21.936Z,964.20
2016-08-06T10:47:21.374Z,964.18
2016-08-06T10:48:22.265Z,964.23
2016-08-06T10:49:31.747Z,964.24
2016-08-06T10:50:21.286Z,964.24
2016-08-06T10:51:28.339Z,964.22
2016-08-06T10:52:11.287Z,964.24
2016-08-06T10:53:23.072Z,964.24
2016-08-06T10:54:14.333Z,964.25
2016-08-06T10:55:28.572Z,964.21
2016-08-06T10:56:35.991Z,964.22
2016-08-06T10:57:31.062Z,964.23
2016-08-06T10:58:22.603Z,964.27
2016-08-06T10:59:29.959Z,964.27
2016-08-06T11:00:30.663Z,964.28
2016-08-06T11:01:16.485Z,964.30
2016-08-06T11:02:12.728Z,964.30
2016-08-06T11:03:28.099Z,964.32
2016-08-06T11:04:22.428Z,964.29
2016-08-06T11:05:21.289Z,964.32
2016-08-06T11:06:32.297Z,964.37
2016-08-06T11:07:28.236Z,964.36
2016-08-06T11:08:15.469Z,964.39
2016-08-06T11:09:22.210Z,964.46
2016-08-06T11:10:31.471Z,964.48
2016-08-06T11:11:22.442Z,964.46
2016-08-06T11:12:13.972Z,964.41
2016-08-06T11:13:27.176Z,964.39
2016-08-06T11:14:26.878Z,964.43
2016-08-06T11:15:28.298Z,964.39
2016-08-06T11:16:26.350Z,964.39
2016-08-06T11:17:21.490Z,964.40
2016-08-06T11:18:23.886Z,964.35
2016-08-06T11:19:36.717Z,964.35
2016-08-06T11:20:29.638Z,964.36
2016-08-06T11:21:30.834Z,964.30
2016-08-06T11:22:20.859Z,964.30
2016-08-06T11:23:25.646Z,964.32
2016-08-06T11:24:16.654Z,964.30
2016-08-06T11:25:15.770Z,964.35
2016-08-06T11:26:13.996Z,964.34
2016-08-06T11:27:22.194Z,964.36
2016-08-06T11:28:21.269Z,964.35
2016-08-06T11:29:27.784Z,964.36
2016-08-06T11:30:28.809Z,964.42
2016-08-06T11:31:34.367Z,964.37
2016-08-06T11:32:27.038Z,964.41
2016-08-06T11:33:30.468Z,964.38
2016-08-06T11:34:32.751Z,964.40
2016-08-06T11:35:25.665Z,964.41
2016-08-06T11:36:22.190Z,964.35
2016-08-06T11:37:20.781Z,964.40
2016-08-06T11:38:12.034Z,964.40
2016-08-06T11:39:25.544Z,964.41
2016-08-06T11:40:34.169Z,964.40
2016-08-06T11:41:28.755Z,964.42
2016-08-06T11:42:22.519Z,964.43
2016-08-06T11:43:24.395Z,964.41
2016-08-06T11:44:20.973Z,964.44
2016-08-06T11:45:14.528Z,964.46
2016-08-06T11:46:33.516Z,964.43
2016-08-06T11:47:29.876Z,964.44
2016-08-06T11:48:20.593Z,964.44
2016-08-06T11:49:13.637Z,964.41
2016-08-06T11:50:23.543Z,964.43
2016-08-06T11:51:15.322Z,964.44
2016-08-06T11:52:27.279Z,964.43
2016-08-06T11:53:27.779Z,964.37
2016-08-06T11:54:21.605Z,964.43
2016-08-06T11:55:22.346Z,964.42
2016-08-06T11:56:22.246Z,964.41
2016-08-06T11:57:36.212Z,964.35
2016-08-06T11:58:29.021Z,964.36
2016-08-06T11:59:31.819Z,964.34
2016-08-06T12:00:24.895Z,964.32
2016-08-06T12:01:26.896Z,964.29
2016-08-06T12:02:26.993Z,964.29
2016-08-06T12:03:16.102Z,964.30
2016-08-06T12:04:19.482Z,964.33
2016-08-06T12:05:36.787Z,964.28
2016-08-06T12:06:13.128Z,964.32
2016-08-06T12:07:26.979Z,964.28
2016-08-06T12:08:32.952Z,964.30
2016-08-06T12:09:27.191Z,964.28
2016-08-06T12:10:36.193Z,964.29
2016-08-06T12:11:25.248Z,964.31
2016-08-06T12:12:22.846Z,964.29
2016-08-06T12:13:24.270Z,964.31
2016-08-06T12:14:23.077Z,964.32
2016-08-06T12:15:22.940Z,964.32
2016-08-06T12:16:33.342Z,964.30
2016-08-06T12:17:39.165Z,964.34
2016-08-06T12:18:23.084Z,964.31
2016-08-06T12:19:25.920Z,964.34
2016-08-06T12:20:36.788Z,964.38
2016-08-06T12:21:21.845Z,964.35
2016-08-06T12:22:33.744Z,964.34
2016-08-06T12:23:26.028Z,964.38
2016-08-06T12:24:34.065Z,964.38
2016-08-06T12:25:24.227Z,964.36
2016-08-06T12:26:31.502Z,964.37
2016-08-06T12:27:43.852Z,964.43
2016-08-06T12:28:16.457Z,964.41
2016-08-06T12:29:27.819Z,964.44
2016-08-06T12:30:33.025Z,964.45
2016-08-06T12:31:12.249Z,964.42
2016-08-06T12:32:32.660Z,964.43
2016-08-06T12:33:35.977Z,964.46
2016-08-06T12:34:41.730Z,964.45
2016-08-06T12:35:28.120Z,964.43
2016-08-06T12:36:38.343Z,964.43